Impacts METAR Board
IDs:

KLGA - New York/La Guardia, NY, US

Updated at: 2100 UTC 24 Apr 2018
Potential Impact None Slight Moderate High
Time 24/09Z 24/10Z 24/11Z 24/12Z 24/13Z 24/14Z 24/15Z 24/16Z 24/17Z 24/18Z 24/19Z 24/20Z 24/21Z
Temp47 47 47 48 51 55 61 62 65 65 65 63 62
Dewpt42 42 42 43 43 42 33 37 34 36 40 39 40
Altim30.40 30.40 30.40 30.42 30.41 30.40 30.39 30.37 30.35 30.33 30.30 30.27 30.25
VIS10 10 9 9 10 10 10 10 10 10 10 10 10
CIG-- -- 250 -- 250 250 250 150 250 250 250 250 250
CoverFEWSCTBKNSCTBKNBKNBKNBKNBKNBKNBKNOVCOVC
FltCatVFRVFRVFRVFRVFRVFRVFRVFRVFRVFRVFRVFRVFR
WX--------------------------
WDir130070604040140140170160150140150
WSpd4 4 5 5 7 7 12 11 15 15 15 15 10
WGst-- -- -- -- -- -- -- 17 -- 21 21 19 --
Raw hourly METARs
KLGA 240851Z 13004KT 10SM FEW250 08/06 A3040 RMK AO2 SLP292 T00830056 56005
KLGA 240951Z VRB04KT 10SM SCT250 08/06 A3040 RMK AO2 SLP294 T00830056
KLGA 241051Z 07005KT 9SM BKN250 08/06 A3040 RMK AO2 SLP294 T00830056
KLGA 241151Z 06005KT 9SM SCT250 09/06 A3042 RMK AO2 SLP300 T00890061 10100 20078 53007
KLGA 241251Z 04007KT 10SM FEW180 BKN250 11/06 A3041 RMK AO2 SLP298 T01060061
KLGA 241351Z 04007KT 10SM FEW100 FEW180 BKN250 13/06 A3040 RMK AO2 SLP295 T01280056
KLGA 241451Z 14012KT 10SM FEW100 FEW170 BKN250 16/01 A3039 RMK AO2 SLP289 T01610006 58010
KLGA 241551Z 14011G17KT 10SM SCT049 BKN150 BKN250 17/03 A3037 RMK AO2 SLP283 T01670028
KLGA 241651Z 17015KT 10SM FEW049 FEW140 BKN250 18/01 A3035 RMK AO2 SLP277 T01830011
KLGA 241751Z 16015G21KT 10SM FEW050 FEW150 BKN250 18/02 A3033 RMK AO2 SLP270 T01830022 10189 20089 58020
KLGA 241851Z 15015G21KT 10SM SCT050 SCT150 BKN250 18/04 A3030 RMK AO2 SLP260 T01830044
KLGA 241951Z 14015G19KT 10SM SCT050 SCT150 OVC250 17/04 A3027 RMK AO2 SLP250 T01720039
KLGA 242051Z 15010KT 10SM SCT050 SCT150 OVC250 17/04 A3025 RMK AO2 SLP245 T01670044 56025



Page loaded:  21:06 UTC  |   02:06 PM Pacific  |   03:06 PM Mountain  |   04:06 PM Central  |   05:06 PM Eastern

 

ADVISORIES

FORECASTS

FORECASTS

OBSERVATIONS

USER TOOLS

ABOUT US